Time;durP1;ratioP1;P1;durP2;ratioP2;P2;SDS_P1;SDS_P2;PMS_P1;PMS_P2;Temp;Humidity;BMP_temperature;BMP_pressure;BME280_temperature;BME280_humidity;BME280_pressure;Samples;Min_cycle;Max_cycle;Signal;HPM_P1;HPM_P2
2022/01/02 00:02:12;;;;;;;4.07;1.65;;;7.20;90.70;;;;;;5126414;27;20027;-75
2022/01/02 00:04:49;;;;;;;5.32;1.65;;;6.90;91.00;;;;;;5126704;27;20027;-75
2022/01/02 00:07:16;;;;;;;3.63;1.80;;;7.00;90.80;;;;;;5127685;27;20042;-76
2022/01/02 00:09:49;;;;;;;3.55;2.00;;;7.20;90.50;;;;;;5108912;27;20656;-75
2022/01/02 00:12:18;;;;;;;5.47;2.50;;;7.40;90.50;;;;;;5127726;27;20067;-77
2022/01/02 00:14:46;;;;;;;5.38;2.47;;;7.40;90.60;;;;;;5127282;27;20089;-75
2022/01/02 00:17:16;;;;;;;5.93;2.30;;;7.40;90.50;;;;;;5129042;27;20084;-75
2022/01/02 00:19:51;;;;;;;3.20;1.60;;;7.20;90.70;;;;;;5125420;27;20031;-75
2022/01/02 00:22:19;;;;;;;5.13;1.98;;;7.10;90.70;;;;;;5127285;27;20418;-76
2022/01/02 00:24:45;;;;;;;6.22;2.13;;;7.00;91.10;;;;;;5126909;27;20425;-76
2022/01/02 00:27:14;;;;;;;10.30;2.33;;;7.00;91.10;;;;;;5128235;27;20415;-76
2022/01/02 00:29:41;;;;;;;3.78;1.65;;;6.80;91.30;;;;;;5127751;27;20027;-76
2022/01/02 00:32:09;;;;;;;5.75;2.38;;;7.00;90.80;;;;;;5127728;27;20027;-75
2022/01/02 00:34:36;;;;;;;5.20;2.50;;;7.00;91.00;;;;;;5127712;27;20035;-75
2022/01/02 00:37:06;;;;;;;3.90;1.80;;;6.80;91.10;;;;;;5126979;27;20092;-76
2022/01/02 00:39:33;;;;;;;5.40;1.98;;;7.00;90.70;;;;;;5128077;27;20015;-76
2022/01/02 00:42:14;;;;;;;4.00;1.80;;;7.10;90.70;;;;;;5127477;27;20031;-76
2022/01/02 00:45:03;;;;;;;3.63;1.60;;;7.30;90.20;;;;;;5127557;27;20023;-75
2022/01/02 00:47:52;;;;;;;5.55;2.17;;;7.40;90.20;;;;;;5115554;27;20035;-75
2022/01/02 00:50:24;;;;;;;6.20;2.25;;;7.20;90.60;;;;;;5113937;27;20134;-75
2022/01/02 00:52:50;;;;;;;3.58;1.70;;;7.30;90.60;;;;;;5127152;27;20035;-75
2022/01/02 00:55:21;;;;;;;5.25;2.22;;;7.10;91.10;;;;;;5127615;27;20023;-76
2022/01/02 00:57:58;;;;;;;2.80;1.38;;;6.90;91.10;;;;;;5127164;27;20133;-76
2022/01/02 01:00:24;;;;;;;2.33;1.10;;;7.00;90.40;;;;;;5127009;27;20409;-76
2022/01/02 01:02:53;;;;;;;4.30;1.95;;;7.30;90.10;;;;;;5127100;27;20085;-75
2022/01/02 01:05:31;;;;;;;3.42;1.42;;;7.30;90.20;;;;;;5127392;27;20060;-75
2022/01/02 01:08:02;;;;;;;5.45;2.03;;;7.20;90.30;;;;;;5126639;28;20117;-75
2022/01/02 01:10:35;;;;;;;4.40;2.17;;;7.20;90.20;;;;;;5126830;28;20138;-75
2022/01/02 01:13:03;;;;;;;4.68;1.90;;;7.50;89.70;;;;;;5126942;28;20039;-75
2022/01/02 01:15:30;;;;;;;4.28;1.60;;;7.50;89.50;;;;;;5126991;28;20027;-75
2022/01/02 01:17:58;;;;;;;3.92;1.60;;;7.50;89.60;;;;;;5126694;28;20112;-75
2022/01/02 01:20:34;;;;;;;3.70;1.67;;;7.40;89.70;;;;;;5127549;28;20469;-75
2022/01/02 01:23:00;;;;;;;3.92;1.52;;;7.50;89.80;;;;;;5126431;28;20012;-75
2022/01/02 01:25:26;;;;;;;4.47;1.92;;;7.30;90.00;;;;;;5126381;28;20046;-76
2022/01/02 01:27:53;;;;;;;3.55;1.73;;;7.40;89.80;;;;;;5126562;28;20472;-75
2022/01/02 01:30:22;;;;;;;5.28;2.00;;;7.40;89.60;;;;;;5126927;28;20038;-75
2022/01/02 01:32:48;;;;;;;3.90;1.60;;;7.20;90.10;;;;;;5125910;28;20023;-75
2022/01/02 01:35:14;;;;;;;3.00;1.27;;;7.10;90.20;;;;;;5126834;28;20493;-76
2022/01/02 01:37:40;;;;;;;3.58;1.48;;;7.20;90.10;;;;;;5126828;28;20331;-76
2022/01/02 01:40:09;;;;;;;4.03;1.70;;;7.20;90.00;;;;;;5127162;28;20038;-75
2022/01/02 01:42:39;;;;;;;4.10;2.03;;;7.30;89.70;;;;;;5127037;28;20535;-75
2022/01/02 01:47:53;;;;;;;3.75;2.13;;;7.30;89.60;;;;;;5126460;28;20598;-76
2022/01/02 01:50:22;;;;;;;3.67;1.65;;;7.40;89.70;;;;;;5125290;28;20478;-76
2022/01/02 01:52:48;;;;;;;4.95;1.92;;;7.00;90.20;;;;;;5127282;28;20497;-75
2022/01/02 01:55:16;;;;;;;4.30;1.85;;;7.30;89.50;;;;;;5127735;27;20027;-76
2022/01/02 01:57:42;;;;;;;3.38;1.58;;;7.40;89.30;;;;;;5130528;27;20019;-78
2022/01/02 02:00:13;;;;;;;4.35;1.42;;;7.40;89.40;;;;;;5130876;27;20023;-76
2022/01/02 02:02:39;;;;;;;3.42;1.70;;;7.50;89.00;;;;;;5130662;27;20019;-75
2022/01/02 02:05:05;;;;;;;6.53;2.13;;;7.30;89.50;;;;;;5130618;27;20019;-76
2022/01/02 02:07:39;;;;;;;5.88;1.88;;;7.00;90.30;;;;;;5129848;27;20576;-75
2022/01/02 02:12:32;;;;;;;3.78;1.70;;;6.60;90.90;;;;;;5134723;27;20187;-76
2022/01/02 02:14:58;;;;;;;6.22;1.27;;;6.80;90.80;;;;;;5135040;27;20101;-76
2022/01/02 02:17:25;;;;;;;6.00;2.35;;;6.90;90.60;;;;;;5135135;27;20065;-75
2022/01/02 02:20:09;;;;;;;4.22;1.80;;;6.70;90.90;;;;;;5134423;27;20122;-76
2022/01/02 02:22:41;;;;;;;4.93;2.08;;;6.40;91.40;;;;;;5134606;27;20019;-75
2022/01/02 02:25:09;;;;;;;4.70;1.80;;;6.10;91.70;;;;;;5134985;27;20035;-75
2022/01/02 02:27:35;;;;;;;4.20;1.90;;;5.80;92.10;;;;;;5134565;27;20042;-75
2022/01/02 02:30:01;;;;;;;5.60;1.88;;;5.60;92.50;;;;;;5134486;27;20031;-76
2022/01/02 02:32:27;;;;;;;4.00;1.70;;;5.60;92.80;;;;;;5134192;27;20023;-75
2022/01/02 02:34:53;;;;;;;3.20;1.30;;;5.50;93.20;;;;;;5134149;27;20026;-78
2022/01/02 02:37:18;;;;;;;3.45;1.38;;;5.50;93.00;;;;;;5134339;27;20028;-78
2022/01/02 02:39:44;;;;;;;3.58;1.70;;;5.80;92.20;;;;;;5134293;27;20032;-78
2022/01/02 02:42:30;;;;;;;4.00;1.33;;;6.20;91.60;;;;;;5133571;27;20023;-77
2022/01/02 02:48:57;;;;;;;4.05;1.55;;;6.40;91.30;;;;;;5133836;27;20043;-78
2022/01/02 02:50:35;;;;;;;4.90;1.50;;;6.60;90.90;;;;;;5134151;27;20555;-77
2022/01/02 02:53:00;;;;;;;3.63;1.35;;;6.60;90.80;;;;;;5133050;27;20031;-77
2022/01/02 02:55:31;;;;;;;3.45;1.55;;;6.60;90.70;;;;;;5133936;27;20036;-77
2022/01/02 02:58:08;;;;;;;3.90;1.30;;;6.50;90.90;;;;;;5133558;27;20023;-77
2022/01/02 03:00:34;;;;;;;3.67;1.50;;;6.60;90.80;;;;;;5133822;27;20027;-77
2022/01/02 03:03:00;;;;;;;3.63;1.73;;;6.50;90.90;;;;;;5132991;27;20018;-77
2022/01/02 03:05:25;;;;;;;3.78;1.40;;;6.20;91.50;;;;;;5133421;27;20106;-77
2022/01/02 03:07:52;;;;;;;2.83;1.30;;;6.30;91.20;;;;;;5133283;27;20031;-77
2022/01/02 03:10:18;;;;;;;2.78;1.67;;;6.30;91.10;;;;;;5133441;27;20023;-77
2022/01/02 03:12:43;;;;;;;3.38;1.50;;;6.10;91.50;;;;;;5133436;27;20375;-77
2022/01/02 03:15:09;;;;;;;3.35;1.42;;;5.90;91.90;;;;;;5133290;27;20054;-77
2022/01/02 03:17:35;;;;;;;5.47;1.70;;;5.70;92.40;;;;;;5133414;27;20030;-77
2022/01/02 03:20:00;;;;;;;2.97;1.40;;;5.80;92.20;;;;;;5132832;27;20051;-77
2022/01/02 03:22:26;;;;;;;2.70;1.50;;;5.70;92.10;;;;;;5133407;27;20027;-77
2022/01/02 03:24:52;;;;;;;4.75;1.40;;;5.70;92.00;;;;;;5133186;27;20027;-77
2022/01/02 03:27:17;;;;;;;3.78;1.60;;;5.80;91.80;;;;;;5133054;27;20485;-77
2022/01/02 03:29:43;;;;;;;5.78;1.70;;;6.00;91.70;;;;;;5133006;27;20027;-77
2022/01/02 03:32:09;;;;;;;3.17;1.42;;;5.90;91.60;;;;;;5132666;27;20446;-77
2022/01/02 03:34:34;;;;;;;3.17;1.40;;;6.10;91.50;;;;;;5133112;27;20023;-77
2022/01/02 03:37:00;;;;;;;3.13;1.60;;;5.90;91.40;;;;;;5132782;27;20482;-77
2022/01/02 03:39:26;;;;;;;5.43;1.63;;;5.90;91.80;;;;;;5133103;27;20027;-77
2022/01/02 03:41:51;;;;;;;3.47;1.50;;;6.00;91.50;;;;;;5132423;27;20144;-77
2022/01/02 03:44:17;;;;;;;4.95;1.50;;;5.90;91.60;;;;;;5132790;27;20465;-77
2022/01/02 03:46:43;;;;;;;2.30;1.35;;;5.80;91.80;;;;;;5132561;27;20027;-77
2022/01/02 03:49:11;;;;;;;4.00;1.77;;;6.10;91.20;;;;;;5132597;27;20033;-77
2022/01/02 03:51:36;;;;;;;3.38;1.63;;;6.20;91.10;;;;;;5132965;27;20473;-76
2022/01/02 03:54:02;;;;;;;3.75;1.67;;;6.10;91.30;;;;;;5132684;27;20106;-76
2022/01/02 03:56:28;;;;;;;6.35;2.00;;;6.10;91.30;;;;;;5132553;27;20027;-77
2022/01/02 03:58:53;;;;;;;5.15;2.15;;;6.10;91.30;;;;;;5117065;27;20735;-77
2022/01/02 04:01:19;;;;;;;4.70;1.60;;;6.20;91.40;;;;;;5132119;27;20042;-76
2022/01/02 04:03:45;;;;;;;4.93;2.42;;;6.10;91.10;;;;;;5122513;27;20126;-76
2022/01/02 04:06:10;;;;;;;4.07;1.95;;;6.40;91.10;;;;;;5123682;27;20027;-76
2022/01/02 04:08:36;;;;;;;4.32;1.73;;;6.40;91.10;;;;;;5124173;27;20663;-76
2022/01/02 04:11:02;;;;;;;4.07;1.80;;;6.00;91.30;;;;;;5123380;27;20030;-76
2022/01/02 04:13:27;;;;;;;5.03;2.10;;;6.20;91.20;;;;;;5122589;27;20439;-76
2022/01/02 04:15:53;;;;;;;5.55;1.98;;;6.40;91.10;;;;;;5123214;27;20094;-76
2022/01/02 04:18:19;;;;;;;4.40;2.22;;;6.20;91.10;;;;;;5122318;27;20023;-76
2022/01/02 04:20:44;;;;;;;3.95;1.73;;;6.00;91.30;;;;;;5123253;27;20082;-76
2022/01/02 04:23:10;;;;;;;5.18;1.67;;;5.90;91.70;;;;;;5125236;27;20031;-76
2022/01/02 04:25:36;;;;;;;3.88;1.75;;;5.50;92.20;;;;;;5126548;27;20087;-76
2022/01/02 04:28:01;;;;;;;4.90;1.90;;;5.60;92.10;;;;;;5125793;27;20481;-76
2022/01/02 04:30:27;;;;;;;4.75;2.53;;;5.60;92.20;;;;;;5126273;27;20378;-76
2022/01/02 04:32:53;;;;;;;4.15;2.17;;;5.40;92.90;;;;;;5125718;27;20449;-76
2022/01/02 04:35:18;;;;;;;5.82;1.98;;;5.20;92.80;;;;;;5108123;27;20023;-76
2022/01/02 04:37:44;;;;;;;5.60;2.08;;;5.20;92.80;;;;;;5125740;27;20023;-76
2022/01/02 04:40:11;;;;;;;5.55;1.92;;;5.20;92.40;;;;;;5126629;27;20441;-76
2022/01/02 04:42:36;;;;;;;4.70;1.60;;;5.50;92.10;;;;;;5125625;27;20087;-76
2022/01/02 04:45:02;;;;;;;4.25;1.80;;;5.60;91.90;;;;;;5126102;27;20031;-77
2022/01/02 04:47:28;;;;;;;3.65;1.65;;;5.60;91.70;;;;;;5126046;27;20126;-76
2022/01/02 04:49:54;;;;;;;3.58;1.50;;;5.80;91.50;;;;;;5126207;27;20115;-76
2022/01/02 04:52:20;;;;;;;3.35;1.52;;;5.90;91.20;;;;;;5125923;27;20019;-77
2022/01/02 04:54:46;;;;;;;4.35;2.28;;;5.40;92.30;;;;;;5125918;27;20025;-76
2022/01/02 04:57:11;;;;;;;4.80;1.60;;;5.20;93.00;;;;;;5124933;27;20027;-76
2022/01/02 04:59:38;;;;;;;4.72;2.03;;;5.10;93.30;;;;;;5123149;27;20035;-76
2022/01/02 05:02:05;;;;;;;4.10;1.50;;;5.00;92.80;;;;;;5122845;27;20542;-76
2022/01/02 05:04:30;;;;;;;4.47;1.65;;;5.10;92.60;;;;;;5123304;27;20031;-76
2022/01/02 05:06:56;;;;;;;5.68;1.90;;;5.20;92.40;;;;;;5122046;28;20039;-76
2022/01/02 05:09:22;;;;;;;3.42;1.38;;;5.20;92.30;;;;;;5123285;28;20428;-76
2022/01/02 05:11:47;;;;;;;4.15;1.42;;;5.20;92.30;;;;;;5122000;28;20164;-76
2022/01/02 05:14:13;;;;;;;4.15;1.88;;;5.10;93.00;;;;;;5122577;28;20584;-76
2022/01/02 05:16:39;;;;;;;5.55;1.80;;;4.90;93.10;;;;;;5122338;28;20039;-76
2022/01/02 05:19:04;;;;;;;6.95;3.22;;;5.10;92.80;;;;;;5122695;28;20031;-76
2022/01/02 05:21:30;;;;;;;4.53;2.45;;;4.80;93.50;;;;;;5122719;28;20030;-76
2022/01/02 05:23:56;;;;;;;4.03;1.67;;;4.60;94.00;;;;;;5122174;28;20062;-76
2022/01/02 05:26:21;;;;;;;4.60;2.10;;;4.60;93.40;;;;;;5122132;28;20347;-76
2022/01/02 05:28:47;;;;;;;3.88;1.80;;;4.70;93.40;;;;;;5122873;28;20128;-76
2022/01/02 05:31:13;;;;;;;3.92;1.85;;;4.60;93.60;;;;;;5124549;27;20068;-76
2022/01/02 05:33:39;;;;;;;3.88;1.75;;;4.70;93.50;;;;;;5126649;27;20019;-76
2022/01/02 05:36:05;;;;;;;3.05;1.67;;;4.70;93.30;;;;;;5126461;27;20023;-76
2022/01/02 05:38:30;;;;;;;2.63;1.15;;;4.80;93.10;;;;;;5127390;27;20031;-76
2022/01/02 05:40:57;;;;;;;3.22;1.50;;;5.00;92.70;;;;;;5126181;27;20031;-76
2022/01/02 05:43:23;;;;;;;3.75;1.30;;;5.20;92.40;;;;;;5108054;27;20478;-76
2022/01/02 05:45:49;;;;;;;4.47;1.50;;;5.20;92.40;;;;;;5126221;27;20050;-76
2022/01/02 05:48:14;;;;;;;4.15;1.63;;;5.20;92.40;;;;;;5126346;27;20103;-76
2022/01/02 05:50:40;;;;;;;5.22;1.52;;;4.80;92.90;;;;;;5126502;27;20423;-76
2022/01/02 05:53:06;;;;;;;2.72;1.30;;;4.60;93.50;;;;;;5125811;27;20069;-76
2022/01/02 05:55:31;;;;;;;3.92;1.50;;;4.60;93.20;;;;;;5107842;27;20088;-76
2022/01/02 05:57:57;;;;;;;3.72;1.85;;;5.00;92.80;;;;;;5125905;27;20031;-76
2022/01/02 06:00:23;;;;;;;3.55;1.95;;;4.70;93.30;;;;;;5126134;27;20039;-76
2022/01/02 06:02:48;;;;;;;6.50;2.65;;;4.60;93.60;;;;;;5126430;27;20110;-76
2022/01/02 06:05:14;;;;;;;3.28;1.58;;;4.40;93.50;;;;;;5125862;27;20031;-76
2022/01/02 06:07:40;;;;;;;3.45;1.73;;;4.40;93.70;;;;;;5125765;27;20027;-76
2022/01/02 06:10:06;;;;;;;4.32;1.38;;;4.70;93.20;;;;;;5125475;27;20023;-76
2022/01/02 06:12:32;;;;;;;4.63;1.80;;;4.70;93.20;;;;;;5126143;27;20043;-76
2022/01/02 06:14:57;;;;;;;6.32;2.75;;;4.60;93.40;;;;;;5125565;27;20487;-76
2022/01/02 06:17:24;;;;;;;5.55;1.98;;;4.50;93.70;;;;;;5125460;27;20073;-76
2022/01/02 06:19:49;;;;;;;4.03;2.08;;;4.40;93.90;;;;;;5120323;27;20435;-76
2022/01/02 06:22:15;;;;;;;3.95;1.52;;;4.30;94.20;;;;;;5125870;27;20031;-76
2022/01/02 06:24:41;;;;;;;3.33;1.48;;;4.30;93.70;;;;;;5125362;27;20019;-76
2022/01/02 06:27:06;;;;;;;4.15;1.90;;;4.50;93.30;;;;;;5125368;27;20118;-76
2022/01/02 06:29:33;;;;;;;4.88;2.38;;;4.40;93.70;;;;;;5125326;27;20210;-76
2022/01/02 06:31:59;;;;;;;5.88;2.72;;;4.10;94.50;;;;;;5125286;27;20039;-76
2022/01/02 06:34:25;;;;;;;6.05;2.60;;;3.80;95.30;;;;;;5125207;27;20091;-76
2022/01/02 06:36:50;;;;;;;4.35;2.10;;;3.70;95.50;;;;;;5125371;27;20039;-76
2022/01/02 06:39:16;;;;;;;5.43;1.90;;;3.70;95.50;;;;;;5106697;27;20033;-76
2022/01/02 06:41:42;;;;;;;4.20;2.05;;;3.80;95.10;;;;;;5124805;27;20512;-76
2022/01/02 06:44:07;;;;;;;8.98;1.80;;;3.80;95.10;;;;;;5124877;27;20523;-76
2022/01/02 06:46:33;;;;;;;5.25;2.28;;;3.80;95.00;;;;;;5124623;27;20042;-76
2022/01/02 06:48:59;;;;;;;3.80;1.65;;;4.00;94.90;;;;;;5125100;27;20726;-76
2022/01/02 06:51:24;;;;;;;4.50;1.58;;;4.00;94.80;;;;;;5124985;27;20038;-76
2022/01/02 06:53:50;;;;;;;4.80;1.48;;;4.20;94.20;;;;;;5124751;27;20019;-76
2022/01/02 06:56:16;;;;;;;3.90;2.17;;;4.20;94.00;;;;;;5125225;27;20640;-76
2022/01/02 06:58:42;;;;;;;2.63;1.33;;;4.30;94.20;;;;;;5124548;27;20428;-76
2022/01/02 07:01:07;;;;;;;2.67;1.25;;;4.60;93.40;;;;;;5125373;27;20019;-76
2022/01/02 07:03:33;;;;;;;3.47;1.65;;;5.00;92.70;;;;;;5124754;27;20049;-76
2022/01/02 07:06:00;;;;;;;6.15;2.45;;;4.90;93.00;;;;;;5125116;27;20030;-76
2022/01/02 07:08:28;;;;;;;7.10;3.28;;;4.50;93.90;;;;;;5124316;27;20035;-76
2022/01/02 07:10:55;;;;;;;4.03;1.88;;;4.20;94.50;;;;;;5124629;27;20031;-76
2022/01/02 07:13:20;;;;;;;5.00;2.03;;;4.00;95.10;;;;;;5124564;27;20462;-76
2022/01/02 07:15:46;;;;;;;5.07;2.03;;;4.00;95.40;;;;;;5124961;27;20038;-76
2022/01/02 07:18:12;;;;;;;4.43;1.80;;;4.00;95.30;;;;;;5123650;27;20042;-76
2022/01/02 07:20:37;;;;;;;4.90;1.38;;;4.10;94.70;;;;;;5124240;27;20099;-76
2022/01/02 07:23:03;;;;;;;2.97;1.33;;;4.20;94.00;;;;;;5124399;27;20057;-76
2022/01/02 07:25:29;;;;;;;2.47;1.20;;;4.40;93.90;;;;;;5124345;27;20106;-76
2022/01/02 07:27:54;;;;;;;3.35;1.58;;;4.50;93.70;;;;;;5123760;27;20079;-76
2022/01/02 07:30:20;;;;;;;3.10;1.48;;;4.40;93.70;;;;;;5124536;27;20027;-76
2022/01/02 07:32:46;;;;;;;5.45;1.73;;;4.70;93.30;;;;;;5123863;27;20106;-76
2022/01/02 07:35:11;;;;;;;3.80;1.52;;;4.90;92.90;;;;;;5106240;27;20031;-76
2022/01/02 07:37:37;;;;;;;3.92;1.63;;;5.10;92.60;;;;;;5123622;27;20031;-76
2022/01/02 07:40:04;;;;;;;4.05;1.45;;;5.30;92.30;;;;;;5124270;27;20411;-76
2022/01/02 07:42:30;;;;;;;4.78;1.60;;;5.10;92.40;;;;;;5123733;27;20106;-76
2022/01/02 07:44:57;;;;;;;5.90;3.20;;;5.00;93.00;;;;;;5124247;27;20020;-76
2022/01/02 07:47:23;;;;;;;7.03;2.67;;;4.50;94.00;;;;;;5123098;27;20042;-76
2022/01/02 07:49:49;;;;;;;4.57;2.33;;;4.20;94.50;;;;;;5124005;27;20023;-76
2022/01/02 07:52:14;;;;;;;3.97;2.22;;;4.10;95.20;;;;;;5123788;27;20586;-76
2022/01/02 07:54:40;;;;;;;3.40;2.25;;;3.80;95.10;;;;;;5122904;27;20045;-76
2022/01/02 07:57:06;;;;;;;6.00;1.60;;;4.00;94.80;;;;;;5123671;27;20545;-76
2022/01/02 07:59:32;;;;;;;3.53;1.70;;;4.10;94.80;;;;;;5123998;27;20031;-76
2022/01/02 08:01:58;;;;;;;4.40;1.80;;;4.20;94.50;;;;;;5123142;27;20027;-76
2022/01/02 08:04:24;;;;;;;2.38;1.20;;;4.10;94.80;;;;;;5123604;27;20035;-76
2022/01/02 08:06:49;;;;;;;2.90;1.30;;;4.10;95.10;;;;;;5123287;27;20046;-76
2022/01/02 08:09:15;;;;;;;4.65;1.75;;;4.20;94.90;;;;;;5104874;27;20030;-76
2022/01/02 08:11:41;;;;;;;3.70;1.70;;;4.20;94.70;;;;;;5123022;27;20455;-76
2022/01/02 08:14:07;;;;;;;4.07;1.90;;;4.40;94.10;;;;;;5123205;27;20027;-76
2022/01/02 08:16:33;;;;;;;8.18;3.22;;;4.60;94.00;;;;;;5123665;27;20023;-76
2022/01/02 08:19:00;;;;;;;6.00;2.90;;;4.60;94.00;;;;;;5122979;27;20042;-76
2022/01/02 08:21:25;;;;;;;4.55;1.58;;;4.30;94.40;;;;;;5105068;27;20035;-76
2022/01/02 08:23:51;;;;;;;4.68;2.33;;;4.30;94.30;;;;;;5122952;27;20198;-76
2022/01/02 08:26:17;;;;;;;5.95;2.15;;;4.40;94.50;;;;;;5122973;27;20019;-76
2022/01/02 08:28:42;;;;;;;5.72;2.80;;;4.30;94.40;;;;;;5122246;27;20061;-76
2022/01/02 08:31:08;;;;;;;4.13;2.10;;;4.40;94.20;;;;;;5122832;27;20027;-75
2022/01/02 08:33:34;;;;;;;4.00;2.05;;;4.40;94.20;;;;;;5123265;27;20047;-76
2022/01/02 08:35:59;;;;;;;5.55;2.72;;;4.50;94.00;;;;;;5122635;27;20509;-76
2022/01/02 08:38:27;;;;;;;5.85;2.67;;;4.40;94.30;;;;;;5123446;27;20031;-76
2022/01/02 08:40:53;;;;;;;5.20;1.80;;;4.40;94.70;;;;;;5122250;27;20031;-76
2022/01/02 08:43:18;;;;;;;4.28;1.90;;;4.30;94.60;;;;;;5122785;27;20031;-76
2022/01/02 08:45:44;;;;;;;4.47;1.77;;;4.30;94.70;;;;;;5122567;27;20323;-76
2022/01/02 08:48:10;;;;;;;4.68;2.00;;;4.30;94.40;;;;;;5122489;27;20039;-76
2022/01/02 08:50:35;;;;;;;4.30;1.90;;;4.40;94.20;;;;;;5123255;27;20118;-76
2022/01/02 08:53:01;;;;;;;3.70;1.98;;;4.60;93.80;;;;;;5122645;27;20422;-76
2022/01/02 08:55:27;;;;;;;5.13;1.90;;;4.80;93.80;;;;;;5122653;27;20015;-76
2022/01/02 08:57:53;;;;;;;5.25;2.50;;;4.70;94.00;;;;;;5121841;27;20033;-76
2022/01/02 09:00:18;;;;;;;7.22;2.33;;;4.50;94.30;;;;;;5122766;27;20201;-76
2022/01/02 09:02:44;;;;;;;6.07;2.70;;;4.50;94.60;;;;;;5122355;27;20099;-76
2022/01/02 09:05:10;;;;;;;4.68;2.53;;;4.50;94.40;;;;;;5122139;27;20374;-76
2022/01/02 09:07:36;;;;;;;6.00;3.40;;;4.50;94.30;;;;;;5122987;27;20027;-76
2022/01/02 09:10:03;;;;;;;5.70;2.67;;;4.50;94.10;;;;;;5123068;28;20036;-76
2022/01/02 09:12:29;;;;;;;7.00;2.50;;;4.50;94.30;;;;;;5122727;28;20062;-76
2022/01/02 09:14:54;;;;;;;5.30;2.40;;;4.60;94.10;;;;;;5122752;28;20482;-76
2022/01/02 09:17:20;;;;;;;3.70;1.30;;;4.60;94.00;;;;;;5122181;28;20079;-75
2022/01/02 09:19:46;;;;;;;4.95;1.88;;;5.00;93.30;;;;;;5122771;28;20401;-76
2022/01/02 09:22:12;;;;;;;4.38;1.88;;;5.20;93.40;;;;;;5122517;28;20050;-76
2022/01/02 09:24:38;;;;;;;4.70;2.28;;;5.00;93.70;;;;;;5122098;28;20022;-76
2022/01/02 09:27:04;;;;;;;3.38;1.73;;;4.70;93.80;;;;;;5121924;28;20030;-76
2022/01/02 09:29:31;;;;;;;3.83;1.98;;;4.80;93.90;;;;;;5120962;28;20031;-75
2022/01/02 09:31:57;;;;;;;4.35;1.75;;;4.70;94.00;;;;;;5122388;28;20034;-76
2022/01/02 09:34:22;;;;;;;3.40;1.67;;;5.60;92.60;;;;;;5103654;28;20114;-74
2022/01/02 09:36:48;;;;;;;3.20;1.95;;;5.90;91.90;;;;;;5122223;28;20023;-76
2022/01/02 09:39:14;;;;;;;3.75;1.27;;;5.90;91.90;;;;;;5121788;28;20678;-77
2022/01/02 09:41:40;;;;;;;3.55;1.30;;;5.90;92.00;;;;;;5122383;28;20246;-76
2022/01/02 09:44:06;;;;;;;6.10;1.75;;;5.80;92.20;;;;;;5122206;28;20400;-76
2022/01/02 09:46:33;;;;;;;4.38;1.83;;;5.60;92.50;;;;;;5120202;28;20047;-76
2022/01/02 09:49:00;;;;;;;3.53;1.52;;;5.60;92.60;;;;;;5113908;28;20023;-74
2022/01/02 09:51:27;;;;;;;3.95;1.63;;;5.50;93.20;;;;;;5121376;28;20035;-74
2022/01/02 09:53:54;;;;;;;6.47;2.92;;;5.30;93.50;;;;;;5122998;28;20469;-74
2022/01/02 09:57:05;;;;;;;5.88;2.90;;;5.50;92.80;;;;;;5123019;28;20079;-76
2022/01/02 09:59:41;;;;;;;9.98;4.22;;;5.70;92.80;;;;;;5123374;28;20057;-76
2022/01/02 10:02:08;;;;;;;8.45;3.90;;;5.80;93.20;;;;;;5130063;28;20419;-76
2022/01/02 10:04:39;;;;;;;6.50;3.45;;;5.90;92.50;;;;;;5117906;28;20062;-84
2022/01/02 10:07:23;;;;;;;7.75;3.83;;;6.00;92.20;;;;;;5122120;28;20043;-76
2022/01/02 10:09:50;;;;;;;5.18;2.22;;;6.10;92.50;;;;;;5122702;28;20491;-76
2022/01/02 10:12:22;;;;;;;6.47;2.25;;;6.10;92.20;;;;;;5122430;28;20499;-76
2022/01/02 10:15:07;;;;;;;5.43;2.92;;;6.30;91.70;;;;;;5123218;28;20378;-77
2022/01/02 10:18:10;;;;;;;5.70;2.83;;;6.40;92.40;;;;;;5125244;27;20501;-79
2022/01/02 10:20:38;;;;;;;5.10;2.00;;;6.30;92.80;;;;;;5126745;27;20015;-79
2022/01/02 10:23:05;;;;;;;5.32;2.70;;;6.40;92.30;;;;;;5126528;27;20027;-80
2022/01/02 10:25:44;;;;;;;7.30;3.00;;;6.10;92.90;;;;;;5125860;27;20073;-75
2022/01/02 10:28:22;;;;;;;8.02;4.60;;;6.10;93.00;;;;;;5108050;27;20042;-77
2022/01/02 10:30:50;;;;;;;6.65;3.60;;;6.10;93.60;;;;;;5126491;27;20102;-76
2022/01/02 10:33:16;;;;;;;6.25;2.75;;;6.10;93.40;;;;;;5125484;27;20046;-76
2022/01/02 10:35:42;;;;;;;4.43;2.25;;;6.20;93.50;;;;;;5126610;27;20393;-77
2022/01/02 10:38:15;;;;;;;7.32;3.00;;;6.20;93.60;;;;;;5126354;27;20027;-77
2022/01/02 10:40:42;;;;;;;10.00;2.53;;;6.10;93.70;;;;;;5125799;27;20027;-78
2022/01/02 10:43:33;;;;;;;6.25;2.58;;;6.10;93.80;;;;;;5126782;27;20030;-78
2022/01/02 10:46:11;;;;;;;4.65;2.25;;;6.10;93.70;;;;;;5126068;27;20023;-77
2022/01/02 10:49:19;;;;;;;9.15;4.32;;;6.10;93.70;;;;;;5105797;28;20031;-76
2022/01/02 10:51:45;;;;;;;12.82;6.80;;;6.10;93.70;;;;;;5119604;27;20122;-78
2022/01/02 10:54:11;;;;;;;8.77;3.45;;;6.20;93.50;;;;;;5127416;27;20035;-79
2022/01/02 10:56:39;;;;;;;9.07;5.45;;;6.40;92.90;;;;;;5126732;27;20023;-78
2022/01/02 10:59:05;;;;;;;6.28;3.20;;;6.70;92.70;;;;;;5123151;27;20573;-80
2022/01/02 11:01:31;;;;;;;5.60;3.00;;;7.00;92.00;;;;;;5116122;27;20018;-78
2022/01/02 11:04:00;;;;;;;23.00;11.65;;;7.50;91.90;;;;;;5110383;27;20063;-78
2022/01/02 11:06:33;;;;;;;87.47;52.53;;;7.90;91.10;;;;;;5127842;27;20359;-77
2022/01/02 11:08:59;;;;;;;54.83;32.35;;;7.90;91.60;;;;;;5126327;27;20047;-77
2022/01/02 11:11:25;;;;;;;14.23;8.15;;;7.90;91.50;;;;;;5127377;27;20462;-77
2022/01/02 11:13:53;;;;;;;8.27;3.65;;;7.90;92.00;;;;;;5126855;27;20051;-78
2022/01/02 11:16:19;;;;;;;8.13;3.35;;;7.80;91.80;;;;;;5126404;27;20035;-77
2022/01/02 11:18:47;;;;;;;21.95;12.90;;;7.90;91.70;;;;;;5127214;27;20064;-77
2022/01/02 11:21:13;;;;;;;11.52;6.30;;;8.00;91.90;;;;;;5125912;27;20047;-77
2022/01/02 11:24:18;;;;;;;8.20;4.60;;;7.90;92.60;;;;;;5106690;27;20050;-77
2022/01/02 11:26:56;;;;;;;15.55;9.68;;;7.90;92.30;;;;;;5069972;27;20085;-77
2022/01/02 11:29:29;;;;;;;11.60;6.90;;;8.00;92.40;;;;;;5125930;27;20031;-77
2022/01/02 11:31:55;;;;;;;7.10;4.47;;;8.10;92.20;;;;;;5126677;27;20023;-77
2022/01/02 11:34:23;;;;;;;5.78;3.08;;;8.20;91.60;;;;;;5126101;27;20027;-77
2022/01/02 11:36:49;;;;;;;8.55;2.60;;;8.10;91.00;;;;;;5120139;27;20023;-78
2022/01/02 11:39:14;;;;;;;4.10;2.08;;;8.10;91.30;;;;;;5121506;27;20026;-78
2022/01/02 11:42:05;;;;;;;4.68;2.10;;;8.10;91.20;;;;;;5125234;27;20037;-78
2022/01/02 11:45:01;;;;;;;6.40;2.42;;;8.00;90.80;;;;;;5115912;27;20042;-77
2022/01/02 11:47:46;;;;;;;4.40;1.63;;;7.90;90.80;;;;;;5126083;27;20031;-80
2022/01/02 11:50:30;;;;;;;4.07;1.70;;;7.90;90.70;;;;;;5122873;27;20023;-80
2022/01/02 11:53:27;;;;;;;6.30;2.08;;;8.00;90.50;;;;;;5127192;27;20594;-80
2022/01/02 11:55:54;;;;;;;5.45;2.65;;;8.10;90.50;;;;;;5123236;27;20042;-80
2022/01/02 11:58:39;;;;;;;5.63;2.58;;;8.10;90.30;;;;;;5124897;27;20019;-80
2022/01/02 12:08:41;;;;;;;4.53;2.35;;;8.00;91.50;;;;;;5124752;27;20046;-80
2022/01/02 12:11:43;;;;;;;9.85;2.80;;;7.90;91.40;;;;;;5118589;27;20633;-80
2022/01/02 12:18:11;;;;;;;7.43;2.50;;;8.00;91.30;;;;;;5104857;28;20469;-81
2022/01/02 12:21:00;;;;;;;5.70;2.50;;;8.20;91.30;;;;;;5118979;27;20026;-81
2022/01/02 12:23:35;;;;;;;6.25;2.65;;;8.50;91.30;;;;;;5126327;27;20035;-80
2022/01/02 12:26:22;;;;;;;10.15;5.35;;;8.60;91.40;;;;;;5125416;27;20019;-81
2022/01/02 12:29:00;;;;;;;6.20;3.97;;;8.60;91.50;;;;;;5124656;27;20095;-80
2022/01/02 12:31:42;;;;;;;7.82;4.07;;;8.40;91.70;;;;;;5125618;27;20461;-80
2022/01/02 12:34:22;;;;;;;7.88;3.47;;;8.30;91.70;;;;;;5125258;27;20034;-80
2022/01/02 12:36:55;;;;;;;6.70;3.88;;;8.40;91.40;;;;;;5125269;27;20031;-81
2022/01/02 12:39:39;;;;;;;12.43;5.38;;;8.60;91.90;;;;;;5125086;27;20027;-80
2022/01/02 12:42:15;;;;;;;8.40;3.75;;;8.70;92.10;;;;;;5125378;27;20549;-80
2022/01/02 12:44:47;;;;;;;6.82;2.97;;;8.70;91.80;;;;;;5125890;27;20019;-80
2022/01/02 12:47:24;;;;;;;5.40;3.08;;;8.60;91.20;;;;;;5118438;27;20048;-80
2022/01/02 12:53:05;;;;;;;11.27;3.55;;;8.70;91.60;;;;;;5106106;28;20031;-81
2022/01/02 12:55:32;;;;;;;4.50;2.65;;;8.80;91.20;;;;;;5102995;28;20028;-81
2022/01/02 12:58:11;;;;;;;5.85;3.03;;;8.90;90.90;;;;;;5108210;27;20118;-81
2022/01/02 13:00:45;;;;;;;7.03;3.50;;;8.80;90.70;;;;;;5115161;27;20047;-81
2022/01/02 13:03:16;;;;;;;6.18;3.50;;;8.80;91.20;;;;;;5125316;27;20031;-81
2022/01/02 13:05:55;;;;;;;8.70;3.80;;;8.70;91.40;;;;;;5124786;27;20031;-81
2022/01/02 13:08:29;;;;;;;7.43;2.67;;;8.60;92.00;;;;;;5124411;27;20038;-81
2022/01/02 13:11:12;;;;;;;6.82;2.60;;;8.50;91.40;;;;;;5124818;28;20031;-81
2022/01/02 13:13:51;;;;;;;7.45;3.13;;;8.50;91.30;;;;;;5124590;28;20149;-80
2022/01/02 13:16:18;;;;;;;9.27;4.05;;;8.50;91.40;;;;;;5124825;28;20508;-81
2022/01/02 13:18:44;;;;;;;6.35;3.13;;;8.50;91.50;;;;;;5124935;28;20023;-81
2022/01/02 13:21:14;;;;;;;6.05;3.38;;;8.60;91.60;;;;;;5125059;28;20530;-80
2022/01/02 13:23:40;;;;;;;9.50;4.03;;;8.70;91.20;;;;;;5125914;28;20532;-79
2022/01/02 13:26:19;;;;;;;7.05;3.55;;;8.80;91.60;;;;;;5125661;28;20102;-78
2022/01/02 13:29:00;;;;;;;7.38;2.92;;;8.70;91.40;;;;;;5123478;28;20042;-77